Map

Track Data

SID SEASON NUMBER BASIN SUBBASIN NAME ISO_TIME NATURE LAT LON WMO_WIND WMO_PRES WMO_AGENCY TRACK_TYPE DIST2LAND LANDFALL IFLAG USA_AGENCY USA_ATCF_ID USA_LAT USA_LON USA_RECORD USA_STATUS USA_WIND USA_PRES USA_SSHS USA_R34_NE USA_R34_SE USA_R34_SW USA_R34_NW USA_R50_NE USA_R50_SE USA_R50_SW USA_R50_NW USA_R64_NE USA_R64_SE USA_R64_SW USA_R64_NW USA_POCI USA_ROCI USA_RMW USA_EYE TOKYO_LAT TOKYO_LON TOKYO_GRADE TOKYO_WIND TOKYO_PRES TOKYO_R50_DIR TOKYO_R50_LONG TOKYO_R50_SHORT TOKYO_R30_DIR TOKYO_R30_LONG TOKYO_R30_SHORT TOKYO_LAND CMA_LAT CMA_LON CMA_CAT CMA_WIND CMA_PRES HKO_LAT HKO_LON HKO_CAT HKO_WIND HKO_PRES NEWDELHI_LAT NEWDELHI_LON NEWDELHI_GRADE NEWDELHI_WIND NEWDELHI_PRES NEWDELHI_CI NEWDELHI_DP NEWDELHI_POCI REUNION_LAT REUNION_LON REUNION_TYPE REUNION_WIND REUNION_PRES REUNION_TNUM REUNION_CI REUNION_RMW REUNION_R34_NE REUNION_R34_SE REUNION_R34_SW REUNION_R34_NW REUNION_R50_NE REUNION_R50_SE REUNION_R50_SW REUNION_R50_NW REUNION_R64_NE REUNION_R64_SE REUNION_R64_SW REUNION_R64_NW BOM_LAT BOM_LON BOM_TYPE BOM_WIND BOM_PRES BOM_TNUM BOM_CI BOM_RMW BOM_R34_NE BOM_R34_SE BOM_R34_SW BOM_R34_NW BOM_R50_NE BOM_R50_SE BOM_R50_SW BOM_R50_NW BOM_R64_NE BOM_R64_SE BOM_R64_SW BOM_R64_NW BOM_ROCI BOM_POCI BOM_EYE BOM_POS_METHOD BOM_PRES_METHOD NADI_LAT NADI_LON NADI_CAT NADI_WIND NADI_PRES WELLINGTON_LAT WELLINGTON_LON WELLINGTON_WIND WELLINGTON_PRES DS824_LAT DS824_LON DS824_STAGE DS824_WIND DS824_PRES TD9636_LAT TD9636_LON TD9636_STAGE TD9636_WIND TD9636_PRES TD9635_LAT TD9635_LON TD9635_WIND TD9635_PRES TD9635_ROCI NEUMANN_LAT NEUMANN_LON NEUMANN_CLASS NEUMANN_WIND NEUMANN_PRES MLC_LAT MLC_LON MLC_CLASS MLC_WIND MLC_PRES USA_GUST BOM_GUST BOM_GUST_PER REUNION_GUST REUNION_GUST_PER USA_SEAHGT USA_SEARAD_NE USA_SEARAD_SE USA_SEARAD_SW USA_SEARAD_NW STORM_SPEED STORM_DIR
1918244N35309 1918 54 NA NA NOT_NAMED 1918-08-31 12:00:00 TS 35.0000 -51.0000 35 hurdat_atl main 1303 1291 O_____________ hurdat_atl AL041918 35.0000 -51.0000 TS 35 0 3 306
1918244N35309 1918 54 NA NA NOT_NAMED 1918-08-31 15:00:00 TS 35.0900 -51.1500 main 1291 1278 P_____________ AL041918 35.0900 -51.1500 TS 35 0 3 309
1918244N35309 1918 54 NA NA NOT_NAMED 1918-08-31 18:00:00 TS 35.2000 -51.3000 35 hurdat_atl main 1278 1266 O_____________ hurdat_atl AL041918 35.2000 -51.3000 TS 35 0 4 316
1918244N35309 1918 54 NA NA NOT_NAMED 1918-08-31 21:00:00 TS 35.3425 -51.4500 main 1265 1242 P_____________ AL041918 35.3425 -51.4500 TS 35 0 4 321
1918244N35309 1918 54 NA NA NOT_NAMED 1918-09-01 00:00:00 TS 35.5000 -51.6000 35 hurdat_atl main 1242 1229 O_____________ hurdat_atl AL041918 35.5000 -51.6000 TS 35 0 4 321
1918244N35309 1918 54 NA NA NOT_NAMED 1918-09-01 03:00:00 TS 35.6575 -51.7649 main 1218 1206 P_____________ AL041918 35.6575 -51.7649 TS 35 0 4 321
1918244N35309 1918 54 NA NA NOT_NAMED 1918-09-01 06:00:00 TS 35.8000 -51.9000 35 hurdat_atl main 1206 1194 O_____________ hurdat_atl AL041918 35.8000 -51.9000 TS 35 0 3 326
1918244N35309 1918 54 NA NA NOT_NAMED 1918-09-01 09:00:00 TS 35.9075 -51.9726 main 1194 1183 P_____________ AL041918 35.9075 -51.9726 TS 35 0 2 337
1918244N35309 1918 54 NA NA NOT_NAMED 1918-09-01 12:00:00 TS 36.0000 -52.0000 35 hurdat_atl main 1183 1172 O_____________ hurdat_atl AL041918 36.0000 -52.0000 TS 35 0 2 347
1918244N35309 1918 54 NA NA NOT_NAMED 1918-09-01 15:00:00 TS 36.0925 -52.0150 main 1172 1161 P_____________ AL041918 36.0925 -52.0150 TS 35 0 2 8
1918244N35309 1918 54 NA NA NOT_NAMED 1918-09-01 18:00:00 TS 36.2000 -52.0000 35 hurdat_atl main 1161 1150 O_____________ hurdat_atl AL041918 36.2000 -52.0000 TS 35 0 3 7
1918244N35309 1918 54 NA NA NOT_NAMED 1918-09-01 21:00:00 TS 36.3500 -51.9575 main 1139 1128 P_____________ AL041918 36.3500 -51.9575 TS 37 0 3 14
1918244N35309 1918 54 NA NA NOT_NAMED 1918-09-02 00:00:00 TS 36.5000 -51.9000 40 hurdat_atl main 1128 1117 O_____________ hurdat_atl AL041918 36.5000 -51.9000 TS 40 0 3 18
1918244N35309 1918 54 NA NA NOT_NAMED 1918-09-02 03:00:00 TS 36.6000 -51.8649 main 1117 1107 P_____________ AL041918 36.6000 -51.8649 TS 40 0 2 23
1918244N35309 1918 54 NA NA NOT_NAMED 1918-09-02 06:00:00 TS 36.7000 -51.8000 40 hurdat_atl main 1107 1096 O_____________ hurdat_atl AL041918 36.7000 -51.8000 TS 40 0 3 32
1918244N35309 1918 54 NA NA NOT_NAMED 1918-09-02 09:00:00 TS 36.8425 -51.6800 main 1097 1075 P_____________ AL041918 36.8425 -51.6800 TS 42 0 4 39
1918244N35309 1918 54 NA NA NOT_NAMED 1918-09-02 12:00:00 TS 37.0000 -51.5000 45 hurdat_atl main 1076 1067 O_____________ hurdat_atl AL041918 37.0000 -51.5000 TS 45 0 5 47
1918244N35309 1918 54 NA NA NOT_NAMED 1918-09-02 15:00:00 TS 37.1500 -51.2650 main 1057 1048 P_____________ AL041918 37.1500 -51.2650 TS 45 0 5 53
1918244N35309 1918 54 NA NA NOT_NAMED 1918-09-02 18:00:00 TS 37.3000 -51.0000 45 hurdat_atl main 1050 1040 O_____________ hurdat_atl AL041918 37.3000 -51.0000 TS 45 0 5 53
1918244N35309 1918 54 NA NA NOT_NAMED 1918-09-02 21:00:00 TS 37.4574 -50.7500 main 1032 1023 P_____________ AL041918 37.4574 -50.7500 TS 47 0 5 53
1918244N35309 1918 54 NA NA NOT_NAMED 1918-09-03 00:00:00 TS 37.6000 -50.5000 50 hurdat_atl main 1025 1016 O_____________ hurdat_atl AL041918 37.6000 -50.5000 TS 50 0 5 58
1918244N35309 1918 54 NA NA NOT_NAMED 1918-09-03 03:00:00 TS 37.7074 -50.2499 main 1019 1011 P_____________ AL041918 37.7074 -50.2499 TS 50 0 4 63
1918244N35309 1918 54 NA NA NOT_NAMED 1918-09-03 06:00:00 TS 37.8000 -50.0000 50 hurdat_atl main 1013 1004 O_____________ hurdat_atl AL041918 37.8000 -50.0000 TS 50 0 4 65
1918244N35309 1918 54 NA NA NOT_NAMED 1918-09-03 09:00:00 TS 37.9000 -49.7350 main 1009 1000 P_____________ AL041918 37.9000 -49.7350 TS 52 0 4 63
1918244N35309 1918 54 NA NA NOT_NAMED 1918-09-03 12:00:00 TS 38.0000 -49.5000 55 hurdat_atl main 1003 994 O_____________ hurdat_atl AL041918 38.0000 -49.5000 TS 55 0 4 57
1918244N35309 1918 54 NA NA NOT_NAMED 1918-09-03 15:00:00 TS 38.1074 -49.3275 main 997 986 P_____________ AL041918 38.1074 -49.3275 TS 55 0 3 50
1918244N35309 1918 54 NA NA NOT_NAMED 1918-09-03 18:00:00 TS 38.2000 -49.2000 55 hurdat_atl main 989 981 O_____________ hurdat_atl AL041918 38.2000 -49.2000 TS 55 0 2 51
1918244N35309 1918 54 NA NA NOT_NAMED 1918-09-03 21:00:00 TS 38.2575 -49.0924 main 981 981 P_____________ AL041918 38.2575 -49.0924 TS 57 0 2 57
1918244N35309 1918 54 NA NA NOT_NAMED 1918-09-04 00:00:00 TS 38.3000 -49.0000 60 hurdat_atl main 984 984 O_____________ hurdat_atl AL041918 38.3000 -49.0000 TS 60 0 2 57
1918244N35309 1918 54 NA NA NOT_NAMED 1918-09-04 03:00:00 TS 38.3500 -48.9075 main 987 976 P_____________ AL041918 38.3500 -48.9075 TS 60 0 2 57
1918244N35309 1918 54 NA NA NOT_NAMED 1918-09-04 06:00:00 TS 38.4000 -48.8000 60 hurdat_atl main 979 979 O_____________ hurdat_atl AL041918 38.4000 -48.8000 TS 60 0 2 63
1918244N35309 1918 54 NA NA NOT_NAMED 1918-09-04 09:00:00 TS 38.4500 -48.6575 main 972 972 P_____________ AL041918 38.4500 -48.6575 TS 60 0 3 67
1918244N35309 1918 54 NA NA NOT_NAMED 1918-09-04 12:00:00 TS 38.5000 -48.5000 60 hurdat_atl main 978 978 O_____________ hurdat_atl AL041918 38.5000 -48.5000 TS 60 0 3 67
1918244N35309 1918 54 NA NA NOT_NAMED 1918-09-04 15:00:00 TS 38.5500 -48.3500 main 985 974 P_____________ AL041918 38.5500 -48.3500 TS 60 0 3 67
1918244N35309 1918 54 NA NA NOT_NAMED 1918-09-04 18:00:00 TS 38.6000 -48.2000 60 hurdat_atl main 978 978 O_____________ hurdat_atl AL041918 38.6000 -48.2000 TS 60 0 2 66
1918244N35309 1918 54 NA NA NOT_NAMED 1918-09-04 21:00:00 TS 38.6499 -48.0575 main 981 974 P_____________ AL041918 38.6499 -48.0575 TS 57 0 3 67
1918244N35309 1918 54 NA NA NOT_NAMED 1918-09-05 00:00:00 TS 38.7000 -47.9000 55 hurdat_atl main 978 978 O_____________ hurdat_atl AL041918 38.7000 -47.9000 TS 55 0 3 71
1918244N35309 1918 54 NA NA NOT_NAMED 1918-09-05 03:00:00 TS 38.7425 -47.7149 main 985 975 P_____________ AL041918 38.7425 -47.7149 TS 52 0 3 72
1918244N35309 1918 54 NA NA NOT_NAMED 1918-09-05 06:00:00 TS 38.8000 -47.5000 50 hurdat_atl main 983 977 O_____________ hurdat_atl AL041918 38.8000 -47.5000 TS 50 0 4 66
1918244N35309 1918 54 NA NA NOT_NAMED 1918-09-05 09:00:00 TS 38.8923 -47.2799 main 980 979 P_____________ AL041918 38.8923 -47.2799 TS 47 0 4 63
1918244N35309 1918 54 NA NA NOT_NAMED 1918-09-05 12:00:00 TS 39.0000 -47.0000 45 hurdat_atl main 983 981 O_____________ hurdat_atl AL041918 39.0000 -47.0000 TS 45 0 5 68
1918244N35309 1918 54 NA NA NOT_NAMED 1918-09-05 15:00:00 TS 39.0924 -46.6373 main 990 989 P_____________ AL041918 39.0924 -46.6373 TS 42 0 7 72
1918244N35309 1918 54 NA NA NOT_NAMED 1918-09-05 18:00:00 TS 39.2000 -46.2000 40 hurdat_atl main 999 998 O_____________ hurdat_atl AL041918 39.2000 -46.2000 TS 40 0 8 71
1918244N35309 1918 54 NA NA NOT_NAMED 1918-09-05 21:00:00 TS 39.3405 -45.7131 main 1013 1004 P_____________ AL041918 39.3405 -45.7131 TS 37 0 8 69
1918244N35309 1918 54 NA NA NOT_NAMED 1918-09-06 00:00:00 TS 39.5000 -45.2000 35 hurdat_atl main 1020 O_____________ hurdat_atl AL041918 39.5000 -45.2000 TS 35 0 9 68

About IBTrACS Database

This database is a web-friendly format of International Best Track Archive for Climate Stewardship (IBTrACS), a global best track data archive curated by NOAA dating back to 1842.

Updated: 2021-12-06